sensor_id;sensor_type;location;lat;lon;timestamp;P1;durP1;ratioP1;P2;durP2;ratioP2
18042;SDS011;9146;48.074;11.968;2024-03-06T00:01:43;62.17;;;24.60;;
18042;SDS011;9146;48.074;11.968;2024-03-06T00:04:10;47.00;;;22.07;;
18042;SDS011;9146;48.074;11.968;2024-03-06T00:06:38;41.20;;;21.20;;
18042;SDS011;9146;48.074;11.968;2024-03-06T00:09:05;71.80;;;27.37;;
18042;SDS011;9146;48.074;11.968;2024-03-06T00:11:33;53.47;;;23.10;;
18042;SDS011;9146;48.074;11.968;2024-03-06T00:14:01;46.10;;;22.40;;
18042;SDS011;9146;48.074;11.968;2024-03-06T00:16:30;46.40;;;20.60;;
18042;SDS011;9146;48.074;11.968;2024-03-06T00:18:57;49.37;;;23.63;;
18042;SDS011;9146;48.074;11.968;2024-03-06T00:21:24;55.70;;;25.03;;
18042;SDS011;9146;48.074;11.968;2024-03-06T00:23:52;63.57;;;25.93;;
18042;SDS011;9146;48.074;11.968;2024-03-06T00:26:19;60.47;;;25.60;;
18042;SDS011;9146;48.074;11.968;2024-03-06T00:28:46;74.60;;;26.90;;
18042;SDS011;9146;48.074;11.968;2024-03-06T00:31:13;54.60;;;26.00;;
18042;SDS011;9146;48.074;11.968;2024-03-06T00:33:40;72.43;;;26.80;;
18042;SDS011;9146;48.074;11.968;2024-03-06T00:36:08;53.13;;;25.20;;
18042;SDS011;9146;48.074;11.968;2024-03-06T00:38:35;58.90;;;27.13;;
18042;SDS011;9146;48.074;11.968;2024-03-06T00:41:03;56.63;;;27.73;;
18042;SDS011;9146;48.074;11.968;2024-03-06T00:43:30;63.07;;;26.70;;
18042;SDS011;9146;48.074;11.968;2024-03-06T00:45:57;68.50;;;26.93;;
18042;SDS011;9146;48.074;11.968;2024-03-06T00:48:24;79.87;;;26.37;;
18042;SDS011;9146;48.074;11.968;2024-03-06T00:50:51;65.53;;;26.43;;
18042;SDS011;9146;48.074;11.968;2024-03-06T00:53:18;63.63;;;27.33;;
18042;SDS011;9146;48.074;11.968;2024-03-06T00:55:46;63.67;;;26.00;;
18042;SDS011;9146;48.074;11.968;2024-03-06T00:58:14;83.83;;;30.37;;
18042;SDS011;9146;48.074;11.968;2024-03-06T01:00:41;70.63;;;27.83;;
18042;SDS011;9146;48.074;11.968;2024-03-06T01:03:08;76.30;;;27.13;;
18042;SDS011;9146;48.074;11.968;2024-03-06T01:05:35;88.33;;;29.57;;
18042;SDS011;9146;48.074;11.968;2024-03-06T01:08:02;72.53;;;26.97;;
18042;SDS011;9146;48.074;11.968;2024-03-06T01:10:28;81.10;;;27.70;;
18042;SDS011;9146;48.074;11.968;2024-03-06T01:12:56;74.80;;;29.43;;
18042;SDS011;9146;48.074;11.968;2024-03-06T01:15:24;65.53;;;28.70;;
18042;SDS011;9146;48.074;11.968;2024-03-06T01:17:51;73.17;;;28.27;;
18042;SDS011;9146;48.074;11.968;2024-03-06T01:20:18;62.10;;;28.43;;
18042;SDS011;9146;48.074;11.968;2024-03-06T01:22:44;95.80;;;29.50;;
18042;SDS011;9146;48.074;11.968;2024-03-06T01:25:12;69.20;;;24.90;;
18042;SDS011;9146;48.074;11.968;2024-03-06T01:27:39;78.90;;;28.50;;
18042;SDS011;9146;48.074;11.968;2024-03-06T01:30:06;63.97;;;26.37;;
18042;SDS011;9146;48.074;11.968;2024-03-06T01:32:35;74.63;;;29.40;;
18042;SDS011;9146;48.074;11.968;2024-03-06T01:35:02;67.97;;;28.47;;
18042;SDS011;9146;48.074;11.968;2024-03-06T01:37:30;84.97;;;28.43;;
18042;SDS011;9146;48.074;11.968;2024-03-06T01:39:57;85.23;;;30.00;;
18042;SDS011;9146;48.074;11.968;2024-03-06T01:42:24;76.73;;;30.17;;
18042;SDS011;9146;48.074;11.968;2024-03-06T01:44:55;80.20;;;32.27;;
18042;SDS011;9146;48.074;11.968;2024-03-06T01:47:22;83.67;;;31.90;;
18042;SDS011;9146;48.074;11.968;2024-03-06T01:49:51;83.10;;;29.80;;
18042;SDS011;9146;48.074;11.968;2024-03-06T01:52:18;80.07;;;30.63;;
18042;SDS011;9146;48.074;11.968;2024-03-06T01:54:47;97.23;;;31.63;;
18042;SDS011;9146;48.074;11.968;2024-03-06T01:57:15;72.47;;;31.03;;
18042;SDS011;9146;48.074;11.968;2024-03-06T01:59:45;81.03;;;30.80;;
18042;SDS011;9146;48.074;11.968;2024-03-06T02:02:14;74.97;;;27.80;;
18042;SDS011;9146;48.074;11.968;2024-03-06T02:04:41;82.60;;;29.00;;
18042;SDS011;9146;48.074;11.968;2024-03-06T02:07:09;89.60;;;32.20;;
18042;SDS011;9146;48.074;11.968;2024-03-06T02:09:36;77.93;;;27.83;;
18042;SDS011;9146;48.074;11.968;2024-03-06T02:12:04;85.90;;;30.57;;
18042;SDS011;9146;48.074;11.968;2024-03-06T02:14:33;80.13;;;31.53;;
18042;SDS011;9146;48.074;11.968;2024-03-06T02:17:00;74.43;;;28.53;;
18042;SDS011;9146;48.074;11.968;2024-03-06T02:19:36;78.67;;;28.30;;
18042;SDS011;9146;48.074;11.968;2024-03-06T02:22:06;89.00;;;31.03;;
18042;SDS011;9146;48.074;11.968;2024-03-06T02:24:33;100.23;;;32.60;;
18042;SDS011;9146;48.074;11.968;2024-03-06T02:27:00;76.77;;;28.57;;
18042;SDS011;9146;48.074;11.968;2024-03-06T02:29:26;83.93;;;25.60;;
18042;SDS011;9146;48.074;11.968;2024-03-06T02:31:53;47.20;;;20.40;;
18042;SDS011;9146;48.074;11.968;2024-03-06T02:34:20;38.83;;;16.73;;
18042;SDS011;9146;48.074;11.968;2024-03-06T02:36:47;29.57;;;13.37;;
18042;SDS011;9146;48.074;11.968;2024-03-06T02:39:15;20.23;;;10.90;;
18042;SDS011;9146;48.074;11.968;2024-03-06T02:41:42;17.77;;;9.93;;
18042;SDS011;9146;48.074;11.968;2024-03-06T02:44:09;15.83;;;8.60;;
18042;SDS011;9146;48.074;11.968;2024-03-06T02:46:36;16.10;;;8.07;;
18042;SDS011;9146;48.074;11.968;2024-03-06T02:49:03;17.80;;;9.43;;
18042;SDS011;9146;48.074;11.968;2024-03-06T02:51:31;10.80;;;6.70;;
18042;SDS011;9146;48.074;11.968;2024-03-06T02:53:58;14.20;;;7.97;;
18042;SDS011;9146;48.074;11.968;2024-03-06T02:56:27;13.77;;;7.53;;
18042;SDS011;9146;48.074;11.968;2024-03-06T02:58:54;16.40;;;8.93;;
18042;SDS011;9146;48.074;11.968;2024-03-06T03:01:21;16.63;;;8.93;;
18042;SDS011;9146;48.074;11.968;2024-03-06T03:03:48;10.90;;;7.10;;
18042;SDS011;9146;48.074;11.968;2024-03-06T03:06:16;12.63;;;6.67;;
18042;SDS011;9146;48.074;11.968;2024-03-06T03:08:43;12.67;;;7.63;;
18042;SDS011;9146;48.074;11.968;2024-03-06T03:11:10;12.10;;;7.70;;
18042;SDS011;9146;48.074;11.968;2024-03-06T03:13:39;17.53;;;8.87;;
18042;SDS011;9146;48.074;11.968;2024-03-06T03:16:06;10.80;;;5.83;;
18042;SDS011;9146;48.074;11.968;2024-03-06T03:18:32;10.70;;;6.30;;
18042;SDS011;9146;48.074;11.968;2024-03-06T03:20:59;15.43;;;5.97;;
18042;SDS011;9146;48.074;11.968;2024-03-06T03:23:26;10.87;;;6.00;;
18042;SDS011;9146;48.074;11.968;2024-03-06T03:25:53;6.50;;;5.17;;
18042;SDS011;9146;48.074;11.968;2024-03-06T03:28:20;5.00;;;4.50;;
18042;SDS011;9146;48.074;11.968;2024-03-06T03:30:49;5.90;;;4.37;;
18042;SDS011;9146;48.074;11.968;2024-03-06T03:33:15;5.70;;;3.70;;
18042;SDS011;9146;48.074;11.968;2024-03-06T03:35:42;5.60;;;3.67;;
18042;SDS011;9146;48.074;11.968;2024-03-06T03:38:09;5.63;;;3.90;;
18042;SDS011;9146;48.074;11.968;2024-03-06T03:40:36;5.53;;;4.37;;
18042;SDS011;9146;48.074;11.968;2024-03-06T03:43:03;6.40;;;4.40;;
18042;SDS011;9146;48.074;11.968;2024-03-06T03:45:31;4.97;;;3.73;;
18042;SDS011;9146;48.074;11.968;2024-03-06T03:48:01;3.30;;;2.97;;
18042;SDS011;9146;48.074;11.968;2024-03-06T03:50:29;4.37;;;3.97;;
18042;SDS011;9146;48.074;11.968;2024-03-06T03:52:56;5.47;;;3.60;;
18042;SDS011;9146;48.074;11.968;2024-03-06T03:55:26;5.93;;;3.97;;
18042;SDS011;9146;48.074;11.968;2024-03-06T03:57:53;7.23;;;3.90;;
18042;SDS011;9146;48.074;11.968;2024-03-06T04:00:20;5.07;;;3.40;;
18042;SDS011;9146;48.074;11.968;2024-03-06T04:02:47;5.10;;;3.90;;
18042;SDS011;9146;48.074;11.968;2024-03-06T04:05:16;4.23;;;3.57;;
18042;SDS011;9146;48.074;11.968;2024-03-06T04:07:43;6.03;;;3.10;;
18042;SDS011;9146;48.074;11.968;2024-03-06T04:10:11;7.90;;;4.50;;
18042;SDS011;9146;48.074;11.968;2024-03-06T04:12:38;3.67;;;3.30;;
18042;SDS011;9146;48.074;11.968;2024-03-06T04:15:05;6.43;;;3.50;;
18042;SDS011;9146;48.074;11.968;2024-03-06T04:17:34;3.03;;;2.73;;
18042;SDS011;9146;48.074;11.968;2024-03-06T04:20:01;4.50;;;3.57;;
18042;SDS011;9146;48.074;11.968;2024-03-06T04:22:30;3.67;;;3.30;;
18042;SDS011;9146;48.074;11.968;2024-03-06T04:24:57;7.33;;;3.80;;
18042;SDS011;9146;48.074;11.968;2024-03-06T04:27:25;5.33;;;4.27;;
18042;SDS011;9146;48.074;11.968;2024-03-06T04:29:52;3.17;;;2.73;;
18042;SDS011;9146;48.074;11.968;2024-03-06T04:32:19;3.93;;;3.20;;
18042;SDS011;9146;48.074;11.968;2024-03-06T04:34:46;3.40;;;3.10;;
18042;SDS011;9146;48.074;11.968;2024-03-06T04:37:13;4.23;;;3.80;;
18042;SDS011;9146;48.074;11.968;2024-03-06T04:39:41;4.57;;;3.23;;
18042;SDS011;9146;48.074;11.968;2024-03-06T04:42:08;2.83;;;2.53;;
18042;SDS011;9146;48.074;11.968;2024-03-06T04:44:35;5.43;;;3.70;;
18042;SDS011;9146;48.074;11.968;2024-03-06T04:47:02;8.70;;;3.83;;
18042;SDS011;9146;48.074;11.968;2024-03-06T04:49:32;4.20;;;3.13;;
18042;SDS011;9146;48.074;11.968;2024-03-06T04:51:59;6.20;;;3.67;;
18042;SDS011;9146;48.074;11.968;2024-03-06T04:54:26;6.50;;;3.80;;
18042;SDS011;9146;48.074;11.968;2024-03-06T04:56:55;5.80;;;3.60;;
18042;SDS011;9146;48.074;11.968;2024-03-06T04:59:22;4.90;;;4.07;;
18042;SDS011;9146;48.074;11.968;2024-03-06T05:01:49;4.80;;;3.37;;
18042;SDS011;9146;48.074;11.968;2024-03-06T05:04:15;8.40;;;3.47;;
18042;SDS011;9146;48.074;11.968;2024-03-06T05:06:42;6.00;;;3.40;;
18042;SDS011;9146;48.074;11.968;2024-03-06T05:09:09;4.80;;;3.60;;
18042;SDS011;9146;48.074;11.968;2024-03-06T05:11:36;3.40;;;3.00;;
18042;SDS011;9146;48.074;11.968;2024-03-06T05:14:05;4.87;;;3.27;;
18042;SDS011;9146;48.074;11.968;2024-03-06T05:16:32;5.77;;;3.70;;
18042;SDS011;9146;48.074;11.968;2024-03-06T05:18:59;6.40;;;3.90;;
18042;SDS011;9146;48.074;11.968;2024-03-06T05:21:26;4.83;;;3.43;;
18042;SDS011;9146;48.074;11.968;2024-03-06T05:23:53;11.90;;;4.07;;
18042;SDS011;9146;48.074;11.968;2024-03-06T05:26:20;4.97;;;3.87;;
18042;SDS011;9146;48.074;11.968;2024-03-06T05:28:47;11.63;;;4.13;;
18042;SDS011;9146;48.074;11.968;2024-03-06T05:31:17;7.30;;;3.50;;
18042;SDS011;9146;48.074;11.968;2024-03-06T05:33:46;12.23;;;4.83;;
18042;SDS011;9146;48.074;11.968;2024-03-06T05:36:14;10.50;;;4.67;;
18042;SDS011;9146;48.074;11.968;2024-03-06T05:38:42;14.73;;;5.60;;
18042;SDS011;9146;48.074;11.968;2024-03-06T05:41:09;8.00;;;4.03;;
18042;SDS011;9146;48.074;11.968;2024-03-06T05:43:36;6.73;;;4.23;;
18042;SDS011;9146;48.074;11.968;2024-03-06T05:46:03;9.30;;;4.60;;
18042;SDS011;9146;48.074;11.968;2024-03-06T05:48:32;11.00;;;5.20;;
18042;SDS011;9146;48.074;11.968;2024-03-06T05:50:59;15.30;;;4.90;;
18042;SDS011;9146;48.074;11.968;2024-03-06T05:53:27;11.63;;;5.97;;
18042;SDS011;9146;48.074;11.968;2024-03-06T05:55:54;11.50;;;5.13;;
18042;SDS011;9146;48.074;11.968;2024-03-06T05:58:21;9.90;;;5.30;;
18042;SDS011;9146;48.074;11.968;2024-03-06T06:00:48;11.33;;;5.33;;
18042;SDS011;9146;48.074;11.968;2024-03-06T06:03:14;8.90;;;4.90;;
18042;SDS011;9146;48.074;11.968;2024-03-06T06:05:43;8.30;;;4.40;;
18042;SDS011;9146;48.074;11.968;2024-03-06T06:08:12;7.53;;;3.77;;
18042;SDS011;9146;48.074;11.968;2024-03-06T06:10:40;15.43;;;5.33;;
18042;SDS011;9146;48.074;11.968;2024-03-06T06:13:07;10.50;;;5.47;;
18042;SDS011;9146;48.074;11.968;2024-03-06T06:15:34;9.23;;;4.77;;
18042;SDS011;9146;48.074;11.968;2024-03-06T06:18:01;6.10;;;4.87;;
18042;SDS011;9146;48.074;11.968;2024-03-06T06:20:28;8.40;;;4.30;;
18042;SDS011;9146;48.074;11.968;2024-03-06T06:22:56;7.93;;;4.20;;
18042;SDS011;9146;48.074;11.968;2024-03-06T06:25:23;18.83;;;4.50;;
18042;SDS011;9146;48.074;11.968;2024-03-06T06:27:50;7.63;;;3.73;;
18042;SDS011;9146;48.074;11.968;2024-03-06T06:30:17;7.47;;;3.90;;
18042;SDS011;9146;48.074;11.968;2024-03-06T06:32:44;7.77;;;4.23;;
18042;SDS011;9146;48.074;11.968;2024-03-06T06:35:11;6.20;;;3.73;;
18042;SDS011;9146;48.074;11.968;2024-03-06T06:37:39;9.70;;;4.57;;
18042;SDS011;9146;48.074;11.968;2024-03-06T06:40:09;7.33;;;4.33;;
18042;SDS011;9146;48.074;11.968;2024-03-06T06:42:38;9.70;;;4.30;;
18042;SDS011;9146;48.074;11.968;2024-03-06T06:45:12;8.70;;;4.70;;
18042;SDS011;9146;48.074;11.968;2024-03-06T06:47:39;9.97;;;5.00;;
18042;SDS011;9146;48.074;11.968;2024-03-06T06:50:06;11.00;;;4.70;;
18042;SDS011;9146;48.074;11.968;2024-03-06T06:52:34;11.93;;;4.17;;
18042;SDS011;9146;48.074;11.968;2024-03-06T06:55:01;10.13;;;4.50;;
18042;SDS011;9146;48.074;11.968;2024-03-06T06:57:30;5.70;;;4.60;;
18042;SDS011;9146;48.074;11.968;2024-03-06T06:59:58;11.93;;;4.33;;
18042;SDS011;9146;48.074;11.968;2024-03-06T07:02:25;11.27;;;5.03;;
18042;SDS011;9146;48.074;11.968;2024-03-06T07:04:52;10.70;;;5.27;;
18042;SDS011;9146;48.074;11.968;2024-03-06T07:07:19;6.83;;;4.80;;
18042;SDS011;9146;48.074;11.968;2024-03-06T07:09:46;6.40;;;4.73;;
18042;SDS011;9146;48.074;11.968;2024-03-06T07:12:14;10.27;;;5.00;;
18042;SDS011;9146;48.074;11.968;2024-03-06T07:14:42;8.00;;;4.47;;
18042;SDS011;9146;48.074;11.968;2024-03-06T07:17:09;9.50;;;4.90;;
18042;SDS011;9146;48.074;11.968;2024-03-06T07:19:36;10.10;;;4.93;;
18042;SDS011;9146;48.074;11.968;2024-03-06T07:22:04;10.30;;;5.60;;
18042;SDS011;9146;48.074;11.968;2024-03-06T07:24:31;8.90;;;4.43;;
18042;SDS011;9146;48.074;11.968;2024-03-06T07:26:57;10.20;;;4.70;;
18042;SDS011;9146;48.074;11.968;2024-03-06T07:29:26;7.50;;;5.00;;
18042;SDS011;9146;48.074;11.968;2024-03-06T07:31:55;5.57;;;4.50;;
18042;SDS011;9146;48.074;11.968;2024-03-06T07:34:22;7.67;;;4.40;;
18042;SDS011;9146;48.074;11.968;2024-03-06T07:36:49;8.87;;;3.50;;
18042;SDS011;9146;48.074;11.968;2024-03-06T07:39:16;8.37;;;4.80;;
18042;SDS011;9146;48.074;11.968;2024-03-06T07:41:42;9.90;;;5.30;;
18042;SDS011;9146;48.074;11.968;2024-03-06T07:44:09;8.97;;;4.47;;
18042;SDS011;9146;48.074;11.968;2024-03-06T07:46:37;8.00;;;4.63;;
18042;SDS011;9146;48.074;11.968;2024-03-06T07:49:06;8.17;;;5.30;;
18042;SDS011;9146;48.074;11.968;2024-03-06T07:51:33;6.53;;;4.77;;
18042;SDS011;9146;48.074;11.968;2024-03-06T07:54:02;11.50;;;5.53;;
18042;SDS011;9146;48.074;11.968;2024-03-06T07:56:29;7.53;;;4.70;;
18042;SDS011;9146;48.074;11.968;2024-03-06T07:58:56;8.47;;;5.10;;
18042;SDS011;9146;48.074;11.968;2024-03-06T08:01:23;5.80;;;4.57;;
18042;SDS011;9146;48.074;11.968;2024-03-06T08:03:50;7.40;;;4.93;;
18042;SDS011;9146;48.074;11.968;2024-03-06T08:06:20;9.10;;;4.97;;
18042;SDS011;9146;48.074;11.968;2024-03-06T08:08:47;4.80;;;4.30;;
18042;SDS011;9146;48.074;11.968;2024-03-06T08:11:14;6.60;;;5.00;;
18042;SDS011;9146;48.074;11.968;2024-03-06T08:13:41;8.13;;;5.17;;
18042;SDS011;9146;48.074;11.968;2024-03-06T08:16:08;5.80;;;4.00;;
18042;SDS011;9146;48.074;11.968;2024-03-06T08:18:35;8.60;;;4.30;;
18042;SDS011;9146;48.074;11.968;2024-03-06T08:21:02;5.80;;;4.43;;
18042;SDS011;9146;48.074;11.968;2024-03-06T08:23:33;10.03;;;5.50;;
18042;SDS011;9146;48.074;11.968;2024-03-06T08:26:00;6.77;;;4.70;;
18042;SDS011;9146;48.074;11.968;2024-03-06T08:28:27;6.67;;;4.13;;
18042;SDS011;9146;48.074;11.968;2024-03-06T08:30:53;5.83;;;4.90;;
18042;SDS011;9146;48.074;11.968;2024-03-06T08:33:20;6.53;;;4.87;;
18042;SDS011;9146;48.074;11.968;2024-03-06T08:35:47;6.13;;;3.97;;
18042;SDS011;9146;48.074;11.968;2024-03-06T08:38:14;4.63;;;3.90;;
18042;SDS011;9146;48.074;11.968;2024-03-06T08:40:43;6.97;;;4.57;;
18042;SDS011;9146;48.074;11.968;2024-03-06T08:43:11;6.47;;;4.00;;
18042;SDS011;9146;48.074;11.968;2024-03-06T08:45:40;6.47;;;4.70;;
18042;SDS011;9146;48.074;11.968;2024-03-06T08:48:07;5.53;;;4.00;;
18042;SDS011;9146;48.074;11.968;2024-03-06T08:50:35;5.60;;;4.63;;
18042;SDS011;9146;48.074;11.968;2024-03-06T08:53:02;9.93;;;5.97;;
18042;SDS011;9146;48.074;11.968;2024-03-06T08:55:29;7.57;;;4.73;;
18042;SDS011;9146;48.074;11.968;2024-03-06T08:57:57;4.50;;;3.93;;
18042;SDS011;9146;48.074;11.968;2024-03-06T09:00:26;5.97;;;4.40;;
18042;SDS011;9146;48.074;11.968;2024-03-06T09:02:53;4.73;;;3.90;;
18042;SDS011;9146;48.074;11.968;2024-03-06T09:05:20;7.20;;;3.80;;
18042;SDS011;9146;48.074;11.968;2024-03-06T09:07:47;5.77;;;4.43;;
18042;SDS011;9146;48.074;11.968;2024-03-06T09:10:14;6.00;;;4.10;;
18042;SDS011;9146;48.074;11.968;2024-03-06T09:12:41;4.80;;;4.03;;
18042;SDS011;9146;48.074;11.968;2024-03-06T09:15:09;5.27;;;3.53;;
18042;SDS011;9146;48.074;11.968;2024-03-06T09:17:36;7.90;;;4.40;;
18042;SDS011;9146;48.074;11.968;2024-03-06T09:20:04;6.80;;;5.03;;
18042;SDS011;9146;48.074;11.968;2024-03-06T09:22:35;6.37;;;4.23;;
18042;SDS011;9146;48.074;11.968;2024-03-06T09:25:02;6.70;;;5.20;;
18042;SDS011;9146;48.074;11.968;2024-03-06T09:27:30;5.40;;;4.57;;
18042;SDS011;9146;48.074;11.968;2024-03-06T09:29:57;8.17;;;4.77;;
18042;SDS011;9146;48.074;11.968;2024-03-06T09:32:26;7.80;;;4.63;;
18042;SDS011;9146;48.074;11.968;2024-03-06T09:34:53;6.80;;;4.50;;
18042;SDS011;9146;48.074;11.968;2024-03-06T09:37:20;6.17;;;4.20;;
18042;SDS011;9146;48.074;11.968;2024-03-06T09:39:47;6.63;;;4.40;;
18042;SDS011;9146;48.074;11.968;2024-03-06T09:42:14;8.20;;;4.83;;
18042;SDS011;9146;48.074;11.968;2024-03-06T09:44:41;6.60;;;4.87;;
18042;SDS011;9146;48.074;11.968;2024-03-06T09:47:08;6.30;;;4.93;;
18042;SDS011;9146;48.074;11.968;2024-03-06T09:49:40;9.37;;;5.47;;
18042;SDS011;9146;48.074;11.968;2024-03-06T09:52:08;6.37;;;4.97;;
18042;SDS011;9146;48.074;11.968;2024-03-06T09:54:35;6.60;;;4.53;;
18042;SDS011;9146;48.074;11.968;2024-03-06T09:57:04;9.30;;;4.30;;
18042;SDS011;9146;48.074;11.968;2024-03-06T09:59:31;6.93;;;4.97;;
18042;SDS011;9146;48.074;11.968;2024-03-06T10:01:59;8.33;;;5.20;;
18042;SDS011;9146;48.074;11.968;2024-03-06T10:04:28;7.27;;;4.80;;
18042;SDS011;9146;48.074;11.968;2024-03-06T10:07:00;8.80;;;5.60;;
18042;SDS011;9146;48.074;11.968;2024-03-06T10:09:27;8.93;;;5.50;;
18042;SDS011;9146;48.074;11.968;2024-03-06T10:11:57;12.50;;;5.40;;
18042;SDS011;9146;48.074;11.968;2024-03-06T10:14:24;4.90;;;4.37;;
18042;SDS011;9146;48.074;11.968;2024-03-06T10:16:52;9.07;;;5.30;;
18042;SDS011;9146;48.074;11.968;2024-03-06T10:19:21;6.47;;;4.90;;
18042;SDS011;9146;48.074;11.968;2024-03-06T10:21:49;12.57;;;5.30;;
18042;SDS011;9146;48.074;11.968;2024-03-06T10:24:19;7.40;;;5.30;;
18042;SDS011;9146;48.074;11.968;2024-03-06T10:26:48;5.50;;;4.47;;
18042;SDS011;9146;48.074;11.968;2024-03-06T10:29:16;8.20;;;5.50;;
18042;SDS011;9146;48.074;11.968;2024-03-06T10:31:47;6.90;;;5.00;;
18042;SDS011;9146;48.074;11.968;2024-03-06T10:34:16;7.63;;;5.10;;
18042;SDS011;9146;48.074;11.968;2024-03-06T10:36:43;6.47;;;5.30;;
18042;SDS011;9146;48.074;11.968;2024-03-06T10:39:10;10.47;;;5.60;;
18042;SDS011;9146;48.074;11.968;2024-03-06T10:41:41;9.07;;;6.33;;
18042;SDS011;9146;48.074;11.968;2024-03-06T10:44:11;9.70;;;6.97;;
18042;SDS011;9146;48.074;11.968;2024-03-06T10:46:40;7.97;;;5.67;;
18042;SDS011;9146;48.074;11.968;2024-03-06T10:49:12;10.03;;;6.73;;
18042;SDS011;9146;48.074;11.968;2024-03-06T10:51:40;8.83;;;5.30;;
18042;SDS011;9146;48.074;11.968;2024-03-06T10:54:08;8.63;;;5.70;;
18042;SDS011;9146;48.074;11.968;2024-03-06T10:56:38;9.10;;;6.20;;
18042;SDS011;9146;48.074;11.968;2024-03-06T10:59:08;12.63;;;7.53;;
18042;SDS011;9146;48.074;11.968;2024-03-06T11:01:37;16.20;;;6.93;;
18042;SDS011;9146;48.074;11.968;2024-03-06T11:04:05;10.70;;;7.10;;
18042;SDS011;9146;48.074;11.968;2024-03-06T11:06:33;11.37;;;5.90;;
18042;SDS011;9146;48.074;11.968;2024-03-06T11:09:00;11.53;;;7.80;;
18042;SDS011;9146;48.074;11.968;2024-03-06T11:11:28;16.67;;;8.30;;
18042;SDS011;9146;48.074;11.968;2024-03-06T11:14:01;10.83;;;7.20;;
18042;SDS011;9146;48.074;11.968;2024-03-06T11:16:31;8.30;;;6.50;;
18042;SDS011;9146;48.074;11.968;2024-03-06T11:19:05;18.23;;;10.27;;
18042;SDS011;9146;48.074;11.968;2024-03-06T11:21:32;21.67;;;12.60;;
18042;SDS011;9146;48.074;11.968;2024-03-06T11:24:12;20.70;;;12.80;;
18042;SDS011;9146;48.074;11.968;2024-03-06T11:26:41;22.50;;;13.70;;
18042;SDS011;9146;48.074;11.968;2024-03-06T11:29:10;15.47;;;10.63;;
18042;SDS011;9146;48.074;11.968;2024-03-06T11:31:38;16.17;;;9.57;;
18042;SDS011;9146;48.074;11.968;2024-03-06T11:34:22;12.63;;;9.10;;
18042;SDS011;9146;48.074;11.968;2024-03-06T11:36:52;14.80;;;11.20;;
18042;SDS011;9146;48.074;11.968;2024-03-06T11:39:20;17.17;;;10.87;;
18042;SDS011;9146;48.074;11.968;2024-03-06T11:41:48;17.00;;;9.93;;
18042;SDS011;9146;48.074;11.968;2024-03-06T11:44:18;16.30;;;9.53;;
18042;SDS011;9146;48.074;11.968;2024-03-06T11:46:46;16.33;;;10.43;;
18042;SDS011;9146;48.074;11.968;2024-03-06T11:49:14;19.60;;;10.67;;
18042;SDS011;9146;48.074;11.968;2024-03-06T11:51:44;20.47;;;9.73;;
18042;SDS011;9146;48.074;11.968;2024-03-06T11:54:12;16.80;;;10.53;;
18042;SDS011;9146;48.074;11.968;2024-03-06T11:56:39;16.80;;;9.30;;
18042;SDS011;9146;48.074;11.968;2024-03-06T11:59:07;18.53;;;10.10;;
18042;SDS011;9146;48.074;11.968;2024-03-06T12:01:36;14.80;;;9.20;;
18042;SDS011;9146;48.074;11.968;2024-03-06T12:04:03;12.13;;;8.87;;
18042;SDS011;9146;48.074;11.968;2024-03-06T12:06:31;18.27;;;10.13;;
18042;SDS011;9146;48.074;11.968;2024-03-06T12:08:59;16.87;;;10.20;;
18042;SDS011;9146;48.074;11.968;2024-03-06T12:11:26;16.40;;;10.33;;
18042;SDS011;9146;48.074;11.968;2024-03-06T12:13:54;14.03;;;9.47;;
18042;SDS011;9146;48.074;11.968;2024-03-06T12:16:21;14.40;;;9.57;;
18042;SDS011;9146;48.074;11.968;2024-03-06T12:18:55;14.87;;;10.47;;
18042;SDS011;9146;48.074;11.968;2024-03-06T12:21:23;18.63;;;10.93;;
18042;SDS011;9146;48.074;11.968;2024-03-06T12:24:01;19.50;;;11.20;;
18042;SDS011;9146;48.074;11.968;2024-03-06T12:26:29;25.00;;;11.87;;
18042;SDS011;9146;48.074;11.968;2024-03-06T12:29:03;23.20;;;11.60;;
18042;SDS011;9146;48.074;11.968;2024-03-06T12:31:31;20.07;;;11.57;;
18042;SDS011;9146;48.074;11.968;2024-03-06T12:34:00;25.40;;;13.03;;
18042;SDS011;9146;48.074;11.968;2024-03-06T12:36:28;24.93;;;12.83;;
18042;SDS011;9146;48.074;11.968;2024-03-06T12:38:56;20.87;;;11.90;;
18042;SDS011;9146;48.074;11.968;2024-03-06T12:41:25;26.40;;;13.97;;
18042;SDS011;9146;48.074;11.968;2024-03-06T12:43:53;18.63;;;11.70;;
18042;SDS011;9146;48.074;11.968;2024-03-06T12:46:20;19.07;;;11.67;;
18042;SDS011;9146;48.074;11.968;2024-03-06T12:48:47;17.63;;;11.53;;
18042;SDS011;9146;48.074;11.968;2024-03-06T12:51:16;23.40;;;11.37;;
18042;SDS011;9146;48.074;11.968;2024-03-06T12:53:43;22.03;;;11.07;;
18042;SDS011;9146;48.074;11.968;2024-03-06T12:56:10;22.10;;;11.67;;
18042;SDS011;9146;48.074;11.968;2024-03-06T12:58:37;24.00;;;12.00;;
18042;SDS011;9146;48.074;11.968;2024-03-06T13:01:04;22.53;;;12.60;;
18042;SDS011;9146;48.074;11.968;2024-03-06T13:03:31;19.97;;;11.50;;
18042;SDS011;9146;48.074;11.968;2024-03-06T13:05:58;18.57;;;10.73;;
18042;SDS011;9146;48.074;11.968;2024-03-06T13:08:27;17.17;;;10.30;;
18042;SDS011;9146;48.074;11.968;2024-03-06T13:10:54;16.63;;;10.40;;
18042;SDS011;9146;48.074;11.968;2024-03-06T13:13:21;21.27;;;11.73;;
18042;SDS011;9146;48.074;11.968;2024-03-06T13:15:49;21.43;;;11.13;;
18042;SDS011;9146;48.074;11.968;2024-03-06T13:18:16;17.03;;;11.17;;
18042;SDS011;9146;48.074;11.968;2024-03-06T13:20:44;23.47;;;13.23;;
18042;SDS011;9146;48.074;11.968;2024-03-06T13:23:11;31.40;;;12.30;;
18042;SDS011;9146;48.074;11.968;2024-03-06T13:25:40;19.13;;;11.50;;
18042;SDS011;9146;48.074;11.968;2024-03-06T13:28:07;18.37;;;10.30;;
18042;SDS011;9146;48.074;11.968;2024-03-06T13:30:34;22.87;;;11.40;;
18042;SDS011;9146;48.074;11.968;2024-03-06T13:33:03;19.40;;;11.00;;
18042;SDS011;9146;48.074;11.968;2024-03-06T13:35:30;17.90;;;11.90;;
18042;SDS011;9146;48.074;11.968;2024-03-06T13:37:57;22.30;;;12.17;;
18042;SDS011;9146;48.074;11.968;2024-03-06T13:40:24;12.97;;;9.70;;
18042;SDS011;9146;48.074;11.968;2024-03-06T13:42:53;13.27;;;9.37;;
18042;SDS011;9146;48.074;11.968;2024-03-06T13:45:21;12.17;;;8.67;;
18042;SDS011;9146;48.074;11.968;2024-03-06T13:47:48;13.70;;;10.00;;
18042;SDS011;9146;48.074;11.968;2024-03-06T13:50:15;19.23;;;10.93;;
18042;SDS011;9146;48.074;11.968;2024-03-06T13:52:44;13.07;;;9.23;;
18042;SDS011;9146;48.074;11.968;2024-03-06T13:55:11;12.23;;;8.70;;
18042;SDS011;9146;48.074;11.968;2024-03-06T13:57:39;10.83;;;8.57;;
18042;SDS011;9146;48.074;11.968;2024-03-06T14:00:09;13.30;;;8.43;;
18042;SDS011;9146;48.074;11.968;2024-03-06T14:02:42;9.20;;;7.27;;
18042;SDS011;9146;48.074;11.968;2024-03-06T14:05:10;11.73;;;7.83;;
18042;SDS011;9146;48.074;11.968;2024-03-06T14:07:38;8.63;;;6.70;;
18042;SDS011;9146;48.074;11.968;2024-03-06T14:10:06;8.97;;;6.10;;
18042;SDS011;9146;48.074;11.968;2024-03-06T14:12:34;9.63;;;5.80;;
18042;SDS011;9146;48.074;11.968;2024-03-06T14:15:02;10.50;;;7.10;;
18042;SDS011;9146;48.074;11.968;2024-03-06T14:17:31;8.77;;;6.27;;
18042;SDS011;9146;48.074;11.968;2024-03-06T14:19:58;6.63;;;5.93;;
18042;SDS011;9146;48.074;11.968;2024-03-06T14:22:25;7.93;;;6.10;;
18042;SDS011;9146;48.074;11.968;2024-03-06T14:24:52;8.90;;;6.27;;
18042;SDS011;9146;48.074;11.968;2024-03-06T14:27:19;6.87;;;5.53;;
18042;SDS011;9146;48.074;11.968;2024-03-06T14:29:47;8.77;;;7.00;;
18042;SDS011;9146;48.074;11.968;2024-03-06T14:32:14;8.80;;;5.73;;
18042;SDS011;9146;48.074;11.968;2024-03-06T14:34:42;7.20;;;5.57;;
18042;SDS011;9146;48.074;11.968;2024-03-06T14:37:09;5.90;;;5.30;;
18042;SDS011;9146;48.074;11.968;2024-03-06T14:39:37;9.27;;;6.20;;